Time;durP1;ratioP1;P1;durP2;ratioP2;P2;SDS_P1;SDS_P2;PMS_P1;PMS_P2;Temp;Humidity;BMP_temperature;BMP_pressure;BME280_temperature;BME280_humidity;BME280_pressure;Samples;Min_cycle;Max_cycle;Signal;HPM_P1;HPM_P2
2022/08/02 00:00:28;;;;;;;9.00;3.70;;;;;;;18.23;59.05;99564.63;5113163;28;20036;-57
2022/08/02 00:02:54;;;;;;;9.18;3.47;;;;;;;18.24;59.06;99566.34;5112496;28;20051;-58
2022/08/02 00:05:20;;;;;;;7.45;3.65;;;;;;;18.25;58.95;99565.38;5112806;28;20538;-58
2022/08/02 00:07:46;;;;;;;7.07;3.30;;;;;;;18.27;58.86;99572.22;5112837;28;20039;-58
2022/08/02 00:10:12;;;;;;;13.00;4.00;;;;;;;17.93;58.87;99510.53;5112427;28;20080;-59
2022/08/02 00:12:38;;;;;;;5.65;3.40;;;;;;;18.24;58.88;99561.91;5112308;28;20472;-58
2022/08/02 00:15:09;;;;;;;8.65;3.50;;;;;;;18.23;58.69;99569.91;5113172;28;20043;-59
2022/08/02 00:17:35;;;;;;;7.07;3.47;;;;;;;18.04;58.65;99544.84;5113059;28;20422;-58
2022/08/02 00:20:01;;;;;;;5.70;3.83;;;;;;;18.21;58.63;99573.47;5113143;28;20130;-58
2022/08/02 00:22:29;;;;;;;9.00;3.93;;;;;;;18.21;58.77;99572.66;5112794;28;20507;-59
2022/08/02 00:24:55;;;;;;;6.00;3.47;;;;;;;18.19;58.89;99569.28;5112932;27;20044;-58
2022/08/02 00:27:20;;;;;;;5.15;3.85;;;;;;;18.19;58.86;99566.66;5113142;28;20050;-59
2022/08/02 00:29:47;;;;;;;11.05;3.80;;;;;;;18.18;58.98;99570.22;5111179;28;20046;-59
2022/08/02 00:32:13;;;;;;;7.72;3.75;;;;;;;18.00;59.06;99535.47;5111960;28;20043;-58
2022/08/02 00:34:38;;;;;;;6.80;3.92;;;;;;;17.99;59.17;99546.09;5111137;28;20070;-59
2022/08/02 00:37:04;;;;;;;11.88;3.95;;;;;;;18.11;59.21;99554.00;5112667;28;20423;-58
2022/08/02 00:39:30;;;;;;;5.07;3.72;;;;;;;18.11;59.16;99563.66;5112879;28;20476;-57
2022/08/02 00:41:56;;;;;;;9.10;3.60;;;;;;;18.05;59.57;99562.31;5112682;28;20051;-56
2022/08/02 00:44:21;;;;;;;9.65;3.88;;;;;;;18.01;59.96;99557.34;5112437;28;20043;-57
2022/08/02 00:46:47;;;;;;;5.15;3.63;;;;;;;17.97;60.23;99555.88;5102751;28;20565;-55
2022/08/02 00:49:13;;;;;;;7.57;3.88;;;;;;;17.94;60.31;99553.44;5111822;28;20581;-58
2022/08/02 00:51:40;;;;;;;10.45;3.53;;;;;;;17.91;60.61;99562.38;5111011;28;20093;-58
2022/08/02 00:54:06;;;;;;;7.18;4.15;;;;;;;17.89;60.68;99566.06;5112119;28;20031;-57
2022/08/02 00:56:33;;;;;;;6.25;3.60;;;;;;;17.85;60.73;99562.78;5112896;28;20039;-57
2022/08/02 00:59:03;;;;;;;5.75;3.65;;;;;;;17.56;60.74;99514.72;5111104;28;20043;-59
2022/08/02 01:01:38;;;;;;;6.65;3.45;;;;;;;17.48;60.89;99510.91;5110793;28;20035;-56
2022/08/02 01:04:08;;;;;;;8.25;4.13;;;;;;;17.75;61.08;99561.69;5110838;28;20055;-59
2022/08/02 01:06:35;;;;;;;8.02;4.05;;;;;;;17.57;60.89;99534.81;5112342;28;20526;-59
2022/08/02 01:09:02;;;;;;;10.15;4.13;;;;;;;17.69;61.45;99560.31;5111517;28;20138;-58
2022/08/02 01:11:28;;;;;;;7.47;4.00;;;;;;;17.49;61.61;99526.56;5112007;28;20050;-58
2022/08/02 01:14:09;;;;;;;8.82;4.07;;;;;;;17.66;61.84;99555.25;5110547;28;20130;-59
2022/08/02 01:16:47;;;;;;;8.00;3.80;;;;;;;17.65;61.99;99561.47;5110808;28;20438;-57
2022/08/02 01:19:47;;;;;;;9.38;4.13;;;;;;;17.64;61.92;99558.91;5110775;28;20035;-56
2022/08/02 01:22:30;;;;;;;7.22;4.88;;;;;;;17.59;62.18;99556.59;5108759;28;20036;-59
2022/08/02 01:25:02;;;;;;;7.10;3.80;;;;;;;17.56;62.24;99562.03;5111464;28;20036;-59
2022/08/02 01:27:44;;;;;;;9.30;3.80;;;;;;;17.52;62.88;99562.34;5112140;28;20045;-58
2022/08/02 01:30:10;;;;;;;8.95;4.03;;;;;;;17.32;62.87;99530.28;5092936;28;20130;-59
2022/08/02 01:32:41;;;;;;;6.28;3.53;;;;;;;17.47;63.13;99559.16;5110214;28;20048;-59
2022/08/02 01:35:20;;;;;;;11.15;4.22;;;;;;;17.51;63.22;99558.00;5110216;28;20052;-58
2022/08/02 01:37:50;;;;;;;7.15;4.30;;;;;;;17.51;63.23;99558.88;5111612;27;20129;-59
2022/08/02 01:40:22;;;;;;;7.82;3.75;;;;;;;17.30;63.35;99523.44;5111338;28;20044;-60
2022/08/02 01:42:52;;;;;;;7.47;3.80;;;;;;;17.51;63.33;99560.66;5109454;28;20054;-59
2022/08/02 01:45:19;;;;;;;6.82;4.10;;;;;;;17.50;63.37;99557.16;5109816;28;20050;-59
2022/08/02 01:47:45;;;;;;;7.72;4.20;;;;;;;17.49;63.49;99566.00;5093444;28;20035;-59
2022/08/02 01:50:14;;;;;;;8.95;3.70;;;;;;;17.42;63.68;99556.84;5110815;28;20544;-60
2022/08/02 01:52:51;;;;;;;9.07;3.90;;;;;;;17.47;63.91;99561.78;5090015;28;20530;-60
2022/08/02 01:55:33;;;;;;;8.23;3.80;;;;;;;17.45;64.10;99567.13;5106678;28;20036;-59
2022/08/02 01:58:02;;;;;;;5.75;3.50;;;;;;;17.46;63.97;99568.84;5110484;28;20077;-57
2022/08/02 02:00:31;;;;;;;6.65;4.78;;;;;;;17.32;63.98;99546.03;5110672;28;20039;-59
2022/08/02 02:02:57;;;;;;;;;;;;;;;17.49;63.73;99566.00;5111674;28;20047;-59
2022/08/02 02:05:25;;;;;;;7.43;3.97;;;;;;;17.46;63.64;99576.72;5110541;28;19915;-59
2022/08/02 02:07:54;;;;;;;6.70;3.95;;;;;;;17.45;64.17;99572.41;5111006;28;20047;-58
2022/08/02 02:10:29;;;;;;;7.45;4.45;;;;;;;17.46;64.01;99567.97;5111097;28;20544;-58
2022/08/02 02:12:57;;;;;;;10.75;4.40;;;;;;;17.48;63.78;99580.06;5110485;28;20043;-57
2022/08/02 02:15:24;;;;;;;11.02;4.75;;;;;;;17.49;63.50;99579.13;5110546;28;20047;-58
2022/08/02 02:17:51;;;;;;;7.15;4.45;;;;;;;17.32;63.48;99543.41;5109393;28;20507;-57
2022/08/02 02:20:19;;;;;;;8.80;4.47;;;;;;;17.22;63.27;99521.28;5096798;28;20040;-58
2022/08/02 02:22:45;;;;;;;8.57;4.72;;;;;;;17.50;63.40;99566.84;5089507;28;20044;-59
2022/08/02 02:25:13;;;;;;;7.72;4.63;;;;;;;17.56;63.29;99574.34;5108418;28;20043;-59
2022/08/02 02:27:47;;;;;;;8.68;5.32;;;;;;;17.56;63.18;99580.44;5108895;28;20042;-59
2022/08/02 02:30:13;;;;;;;7.68;4.95;;;;;;;17.60;63.28;99578.47;5109086;28;20511;-59
2022/08/02 02:32:40;;;;;;;9.68;4.80;;;;;;;17.40;63.09;99550.81;5109199;28;20088;-59
2022/08/02 02:35:11;;;;;;;9.32;4.95;;;;;;;17.62;63.18;99585.34;5104776;28;20043;-57
2022/08/02 02:37:38;;;;;;;9.57;4.70;;;;;;;17.65;63.30;99579.88;5107776;28;20070;-58
2022/08/02 02:40:05;;;;;;;8.60;5.55;;;;;;;17.56;63.24;99553.31;5109222;28;20043;-59
2022/08/02 02:42:32;;;;;;;11.93;5.53;;;;;;;17.38;62.80;99519.38;5109486;28;20122;-59
2022/08/02 02:44:59;;;;;;;13.48;5.72;;;;;;;17.71;62.90;99571.59;5097882;28;20032;-58
2022/08/02 02:47:27;;;;;;;9.18;5.45;;;;;;;17.73;63.28;99577.59;5099644;28;20047;-58
2022/08/02 02:49:53;;;;;;;13.90;5.72;;;;;;;17.38;62.90;99515.09;5109131;28;20424;-59
2022/08/02 02:52:19;;;;;;;12.73;5.53;;;;;;;17.74;63.15;99576.63;5088745;28;20070;-54
2022/08/02 02:54:47;;;;;;;8.73;4.97;;;;;;;17.76;63.13;99569.50;5104576;28;20036;-53
2022/08/02 02:57:14;;;;;;;9.18;4.95;;;;;;;17.63;63.36;99552.00;5109285;28;20096;-53
2022/08/02 02:59:40;;;;;;;10.68;4.70;;;;;;;17.65;63.61;99547.47;5108864;28;20035;-50
2022/08/02 03:02:06;;;;;;;13.65;5.82;;;;;;;17.83;63.69;99580.47;5108921;28;20092;-52
2022/08/02 03:04:33;;;;;;;8.60;4.60;;;;;;;17.83;64.02;99575.19;5108654;28;20040;-51
2022/08/02 03:06:59;;;;;;;10.10;4.65;;;;;;;17.50;63.85;99525.63;5109160;28;20037;-54
2022/08/02 03:09:25;;;;;;;9.93;4.38;;;;;;;17.84;64.19;99576.06;5110219;28;20036;-49
2022/08/02 03:11:52;;;;;;;11.07;4.53;;;;;;;17.86;64.38;99579.41;5110163;28;20491;-50
2022/08/02 03:14:18;;;;;;;8.15;4.80;;;;;;;17.80;64.80;99570.13;5110013;28;20515;-50
2022/08/02 03:16:46;;;;;;;6.65;3.78;;;;;;;17.83;65.03;99575.19;5108754;28;20100;-50
2022/08/02 03:19:12;;;;;;;10.35;4.57;;;;;;;17.87;64.98;99579.31;5108841;28;20040;-55
2022/08/02 03:21:38;;;;;;;14.48;5.78;;;;;;;17.87;65.02;99575.84;5108884;28;20044;-52
2022/08/02 03:24:05;;;;;;;12.85;4.88;;;;;;;17.94;64.62;99575.34;5110266;28;20084;-50
2022/08/02 03:26:30;;;;;;;11.73;6.45;;;;;;;18.01;64.76;99581.88;5109976;28;20047;-51
2022/08/02 03:28:56;;;;;;;9.82;5.50;;;;;;;18.05;64.62;99583.38;5108321;28;20032;-51
2022/08/02 03:31:22;;;;;;;17.30;5.30;;;;;;;18.10;64.26;99575.16;5109837;28;20095;-53
2022/08/02 03:33:48;;;;;;;11.98;5.93;;;;;;;17.95;64.55;99545.44;5112647;28;20491;-53
2022/08/02 03:36:18;;;;;;;11.75;6.22;;;;;;;17.87;64.76;99529.34;5112709;28;20043;-50
2022/08/02 03:38:45;;;;;;;16.05;8.73;;;;;;;18.24;64.31;99576.84;5112681;28;20046;-50
2022/08/02 03:41:12;;;;;;;15.35;8.52;;;;;;;18.30;64.07;99582.56;5114148;28;20127;-51
2022/08/02 03:43:39;;;;;;;11.57;5.15;;;;;;;18.36;63.81;99573.41;5112196;28;20036;-53
2022/08/02 03:46:06;;;;;;;9.43;5.15;;;;;;;18.41;64.14;99582.69;5107909;28;20043;-51
2022/08/02 03:48:32;;;;;;;14.07;6.47;;;;;;;18.46;64.26;99582.38;5112380;28;20089;-50
2022/08/02 03:50:58;;;;;;;16.08;6.50;;;;;;;18.35;64.01;99553.28;5113547;28;20050;-53
2022/08/02 03:53:24;;;;;;;12.80;7.63;;;;;;;18.21;63.54;99522.66;5112418;28;20035;-52
2022/08/02 03:55:50;;;;;;;11.70;5.65;;;;;;;18.65;63.57;99581.97;5095435;28;20118;-50
2022/08/02 03:58:18;;;;;;;10.18;5.97;;;;;;;18.67;63.54;99580.91;5113446;28;20036;-50
2022/08/02 04:00:45;;;;;;;14.02;5.55;;;;;;;18.76;63.50;99592.59;5111522;28;20408;-50
2022/08/02 04:03:11;;;;;;;13.68;5.45;;;;;;;18.78;63.68;99582.81;5113300;28;20043;-51
2022/08/02 04:05:37;;;;;;;12.65;5.07;;;;;;;18.80;63.96;99587.00;5113780;28;20521;-51
2022/08/02 04:08:02;;;;;;;14.40;5.03;;;;;;;18.87;64.04;99584.78;5113228;28;20570;-52
2022/08/02 04:10:29;;;;;;;10.40;6.03;;;;;;;18.91;64.07;99591.53;5112067;28;20047;-51
2022/08/02 04:12:55;;;;;;;18.42;6.10;;;;;;;18.98;63.40;99585.75;5112930;28;20053;-49
2022/08/02 04:15:21;;;;;;;15.38;6.75;;;;;;;19.04;63.29;99593.22;5111821;28;20407;-51
2022/08/02 04:17:52;;;;;;;12.73;5.70;;;;;;;19.14;63.04;99595.19;5111863;28;20043;-49
2022/08/02 04:20:22;;;;;;;15.02;5.70;;;;;;;19.17;63.00;99587.06;5112233;28;20089;-52
2022/08/02 04:22:55;;;;;;;14.63;5.32;;;;;;;19.24;62.78;99583.03;5094869;28;21036;-52
2022/08/02 04:25:22;;;;;;;14.13;5.53;;;;;;;19.04;62.56;99542.31;5109009;28;20042;-50
2022/08/02 04:27:48;;;;;;;14.05;6.07;;;;;;;19.39;62.61;99585.41;5111952;28;20047;-52
2022/08/02 04:30:16;;;;;;;21.08;8.52;;;;;;;19.36;62.72;99554.00;5111280;28;20070;-49
2022/08/02 04:32:42;;;;;;;8.45;4.00;;;;;;;19.70;61.56;99581.41;5113167;28;20039;-53
2022/08/02 04:35:08;;;;;;;7.43;4.13;;;;;;;19.68;60.48;99562.22;5112982;28;20039;-55
2022/08/02 04:37:34;;;;;;;9.23;4.15;;;;;;;20.03;59.36;99586.00;5111932;28;20058;-53
2022/08/02 04:40:00;;;;;;;13.40;6.03;;;;;;;20.21;59.19;99581.97;5111998;28;20039;-52
2022/08/02 04:42:26;;;;;;;9.95;4.57;;;;;;;20.36;59.04;99590.56;5111815;28;20040;-49
2022/08/02 04:44:52;;;;;;;10.13;4.20;;;;;;;20.48;58.19;99575.56;5110956;28;20096;-52
2022/08/02 04:47:21;;;;;;;7.30;4.20;;;;;;;20.61;57.50;99582.47;5111583;28;20499;-53
2022/08/02 04:49:47;;;;;;;13.13;4.97;;;;;;;20.78;57.37;99585.59;5112766;28;20134;-52
2022/08/02 04:52:13;;;;;;;73.53;10.60;;;;;;;20.99;56.65;99584.72;5112804;28;20578;-53
2022/08/02 04:54:39;;;;;;;7.72;3.75;;;;;;;21.19;55.94;99585.00;5112076;28;20043;-53
2022/08/02 04:57:53;;;;;;;8.10;3.35;;;;;;;21.41;54.95;99587.59;5111593;28;20506;-53
2022/08/02 04:59:51;;;;;;;9.05;3.70;;;;;;;21.59;53.94;99595.84;5112350;28;20047;-51
2022/08/02 05:02:16;;;;;;;6.57;3.33;;;;;;;21.74;52.98;99595.44;5112698;28;20419;-52
2022/08/02 05:04:42;;;;;;;8.48;3.47;;;;;;;21.91;52.10;99592.28;5112533;28;20039;-52
2022/08/02 05:07:08;;;;;;;8.40;3.30;;;;;;;22.07;51.60;99581.28;5112523;28;20529;-52
2022/08/02 05:09:34;;;;;;;7.45;2.90;;;;;;;22.33;51.50;99590.53;5112486;28;20118;-54
2022/08/02 05:11:59;;;;;;;7.90;3.70;;;;;;;22.61;51.27;99586.34;5099594;28;20035;-50
2022/08/02 05:14:25;;;;;;;4.32;3.22;;;;;;;22.70;50.92;99561.75;5112162;28;20039;-55
2022/08/02 05:16:51;;;;;;;8.05;3.40;;;;;;;23.06;51.04;99580.75;5110593;28;20419;-51
2022/08/02 05:19:17;;;;;;;6.38;3.35;;;;;;;23.30;50.44;99578.56;5112377;28;20511;-52
2022/08/02 05:21:42;;;;;;;7.95;3.42;;;;;;;23.32;49.08;99571.34;5110890;28;20078;-55
2022/08/02 05:24:08;;;;;;;8.88;4.35;;;;;;;23.04;48.69;99530.47;5112191;28;20039;-53
2022/08/02 05:26:34;;;;;;;5.97;3.28;;;;;;;23.43;48.23;99581.00;5112205;28;20527;-52
2022/08/02 05:29:00;;;;;;;10.05;3.35;;;;;;;23.50;47.81;99572.38;5110802;28;20046;-52
2022/08/02 05:31:26;;;;;;;3.65;2.85;;;;;;;23.71;47.55;99576.75;5111759;28;20035;-53
2022/08/02 05:33:51;;;;;;;5.00;3.03;;;;;;;23.88;46.74;99573.38;5112077;28;20432;-54
2022/08/02 05:36:17;;;;;;;5.20;2.80;;;;;;;23.99;46.09;99574.09;5110194;28;20039;-50
2022/08/02 05:38:43;;;;;;;8.95;2.70;;;;;;;24.09;45.52;99566.09;5111603;28;20043;-50
2022/08/02 05:41:10;;;;;;;5.72;2.88;;;;;;;24.33;45.62;99571.00;5105271;28;20066;-51
2022/08/02 05:43:35;;;;;;;4.80;2.78;;;;;;;24.49;45.29;99564.09;5110785;28;20177;-54
2022/08/02 05:46:01;;;;;;;5.30;2.95;;;;;;;24.37;44.77;99572.41;5110548;28;20567;-52
2022/08/02 05:48:27;;;;;;;7.60;2.70;;;;;;;23.98;45.07;99537.88;5111860;28;20050;-54
2022/08/02 05:50:56;;;;;;;9.68;2.72;;;;;;;23.98;45.29;99558.28;5105177;28;20044;-51
2022/08/02 05:53:23;;;;;;;;;;;;;;;23.97;45.36;99559.28;5090609;28;20043;-51
2022/08/02 05:56:05;;;;;;;8.38;2.95;;;;;;;23.92;44.93;99558.84;5100283;28;19927;-54
2022/08/02 05:58:56;;;;;;;7.15;2.97;;;;;;;23.85;45.01;99550.63;5124572;27;20042;-53
2022/08/02 06:01:28;;;;;;;3.40;2.63;;;;;;;23.96;45.06;99557.59;5101306;27;20054;-50
2022/08/02 06:03:56;;;;;;;7.55;3.08;;;;;;;24.23;44.81;99557.75;5110088;28;20282;-52
2022/08/02 06:06:24;;;;;;;9.43;3.72;;;;;;;24.48;44.62;99546.50;5092470;28;20051;-53
2022/08/02 06:08:54;;;;;;;10.00;3.50;;;;;;;24.77;44.39;99551.69;5101623;28;20059;-52
2022/08/02 06:11:21;;;;;;;9.15;3.60;;;;;;;25.01;44.08;99555.72;5093812;28;20120;-54
2022/08/02 06:13:47;;;;;;;6.47;3.00;;;;;;;25.19;43.50;99554.75;5099174;28;20065;-52
2022/08/02 06:16:14;;;;;;;14.50;3.38;;;;;;;25.23;43.01;99557.94;5108710;28;20155;-59
2022/08/02 06:18:41;;;;;;;7.45;3.00;;;;;;;25.16;43.16;99552.41;5058277;28;20080;-57
2022/08/02 06:21:10;;;;;;;8.75;3.10;;;;;;;25.22;42.64;99564.28;5109279;28;20035;-56
2022/08/02 06:23:40;;;;;;;6.05;3.03;;;;;;;25.17;42.64;99561.22;5108549;28;20230;-57
2022/08/02 06:26:07;;;;;;;8.48;3.28;;;;;;;25.19;42.41;99524.66;5108146;28;20093;-53
2022/08/02 06:28:36;;;;;;;5.70;3.28;;;;;;;25.35;42.61;99551.44;5109212;27;20403;-51
2022/08/02 06:31:02;;;;;;;;;;;;;;;25.54;42.35;99556.63;5108881;28;20104;-51
2022/08/02 06:33:28;;;;;;;9.93;2.80;;;;;;;25.91;41.88;99551.19;5110245;28;20390;-50
2022/08/02 06:36:08;;;;;;;8.35;3.38;;;;;;;26.47;40.54;99553.50;5109737;28;20059;-54
2022/08/02 06:38:42;;;;;;;9.75;4.03;;;;;;;27.12;39.47;99553.84;5107482;28;20036;-51
2022/08/02 06:41:11;;;;;;;8.45;3.60;;;;;;;28.06;38.08;99543.66;5103544;28;20043;-48
2022/08/02 06:43:46;;;;;;;12.43;3.33;;;;;;;29.03;36.71;99548.88;5108617;28;20071;-51
2022/08/02 06:46:12;;;;;;;7.82;3.33;;;;;;;30.22;35.25;99551.97;5076803;28;20134;-56
2022/08/02 06:48:38;;;;;;;12.27;3.85;;;;;;;31.41;34.22;99551.81;5106228;28;20597;-53
2022/08/02 06:51:04;;;;;;;4.65;2.33;;;;;;;31.42;31.90;99552.66;5084975;28;20068;-53
2022/08/02 06:53:30;;;;;;;3.50;2.50;;;;;;;29.83;33.81;99557.44;5106816;28;20485;-59
2022/08/02 06:55:57;;;;;;;4.57;2.67;;;;;;;30.18;33.42;99544.47;5109757;28;20497;-59
2022/08/02 06:58:23;;;;;;;6.13;2.70;;;;;;;31.18;31.90;99547.63;5109651;28;20122;-51
2022/08/02 07:00:49;;;;;;;6.63;3.10;;;;;;;30.64;32.53;99551.41;5103730;28;20070;-49
2022/08/02 07:03:15;;;;;;;8.52;3.00;;;;;;;29.81;33.33;99545.25;5109411;28;20078;-49
2022/08/02 07:05:42;;;;;;;7.45;2.75;;;;;;;29.65;33.21;99540.84;5090871;28;20117;-46
2022/08/02 07:08:08;;;;;;;8.95;2.80;;;;;;;29.55;33.49;99550.13;5111361;28;20057;-48
2022/08/02 07:10:34;;;;;;;4.45;2.38;;;;;;;29.81;32.97;99543.41;5095547;28;20043;-52
2022/08/02 07:13:00;;;;;;;7.18;3.08;;;;;;;30.05;32.49;99541.56;5113376;28;20038;-66
2022/08/02 07:15:26;;;;;;;5.97;2.70;;;;;;;30.43;32.09;99540.53;5114236;28;20449;-61
2022/08/02 07:17:51;;;;;;;6.35;2.90;;;;;;;31.13;31.21;99540.97;5113596;28;20046;-57
2022/08/02 07:20:18;;;;;;;7.68;3.08;;;;;;;31.81;30.94;99544.22;5113897;28;20070;-59
2022/08/02 07:22:43;;;;;;;5.10;2.88;;;;;;;31.64;30.81;99515.91;5113192;28;20046;-58
2022/08/02 07:25:09;;;;;;;20.67;11.82;;;;;;;32.50;29.58;99518.31;5113683;28;20039;-60
2022/08/02 07:27:36;;;;;;;7.40;2.70;;;;;;;34.46;26.89;99540.66;5113570;28;20062;-57
2022/08/02 07:30:03;;;;;;;14.45;7.70;;;;;;;35.78;25.66;99542.91;5113351;28;20039;-61
2022/08/02 07:32:31;;;;;;;7.57;3.15;;;;;;;36.35;23.89;99522.88;5113798;28;20039;-61
2022/08/02 07:34:57;;;;;;;3.50;2.75;;;;;;;36.63;23.42;99547.66;5111581;28;20131;-56
2022/08/02 07:37:25;;;;;;;7.32;3.70;;;;;;;37.10;22.44;99551.50;5113908;28;20493;-57
2022/08/02 07:39:51;;;;;;;4.82;2.83;;;;;;;36.67;22.92;99545.31;5113656;28;20059;-59
2022/08/02 07:42:17;;;;;;;5.15;2.47;;;;;;;36.46;22.46;99533.81;5112137;28;20055;-68
2022/08/02 07:44:43;;;;;;;4.38;2.40;;;;;;;37.08;21.84;99541.91;5111129;28;20077;-63
2022/08/02 07:47:09;;;;;;;6.65;2.28;;;;;;;36.72;21.71;99540.88;5113281;28;20131;-63
2022/08/02 07:49:35;;;;;;;4.57;2.33;;;;;;;35.28;23.05;99528.41;5111048;28;20122;-56
2022/08/02 07:52:00;;;;;;;5.55;2.67;;;;;;;36.80;22.47;99531.59;5113439;28;20039;-62
2022/08/02 07:54:26;;;;;;;6.55;2.08;;;;;;;38.40;20.89;99530.78;5112805;28;21975;-66
2022/08/02 07:56:53;;;;;;;3.40;2.40;;;;;;;38.97;19.80;99534.53;5112849;28;20414;-65
2022/08/02 07:59:19;;;;;;;4.57;1.70;;;;;;;38.58;19.79;99538.81;5112984;28;20044;-65
2022/08/02 08:01:45;;;;;;;4.53;2.33;;;;;;;36.18;21.57;99532.63;5112889;28;20080;-64
2022/08/02 08:04:11;;;;;;;4.97;1.67;;;;;;;35.35;22.41;99526.50;5113137;28;20444;-64
2022/08/02 08:06:37;;;;;;;2.80;1.83;;;;;;;33.10;24.36;99532.94;5113436;28;20570;-62
2022/08/02 08:09:03;;;;;;;3.85;1.80;;;;;;;31.29;26.56;99534.53;5075472;28;20148;-64
2022/08/02 08:11:29;;;;;;;2.55;2.13;;;;;;;30.45;27.37;99524.28;5101721;28;20209;-62
2022/08/02 08:13:55;;;;;;;2.75;1.70;;;;;;;31.39;26.61;99529.69;5100269;28;20079;-64
2022/08/02 08:16:20;;;;;;;3.03;1.80;;;;;;;30.75;27.31;99531.34;5110065;28;20089;-63
2022/08/02 08:18:46;;;;;;;3.67;1.85;;;;;;;32.06;26.00;99526.66;5098331;28;20058;-66
2022/08/02 08:21:12;;;;;;;6.28;2.35;;;;;;;34.89;23.39;99519.41;5103507;28;20043;-64
2022/08/02 08:23:38;;;;;;;4.00;2.08;;;;;;;36.74;21.53;99529.81;5107537;28;20089;-69
2022/08/02 08:26:03;;;;;;;3.08;2.03;;;;;;;35.44;21.83;99520.59;5110571;28;20051;-70
2022/08/02 08:28:29;;;;;;;5.75;2.22;;;;;;;36.19;21.89;99527.00;5110529;28;20036;-70
2022/08/02 08:30:56;;;;;;;1.95;1.48;;;;;;;35.94;21.41;99545.09;5112296;28;20059;-64
2022/08/02 08:33:22;;;;;;;2.15;1.65;;;;;;;34.76;21.76;99528.38;5108071;28;20036;-66
2022/08/02 08:35:47;;;;;;;3.97;1.90;;;;;;;34.80;21.54;99543.13;5107949;28;20066;-62
2022/08/02 08:38:14;;;;;;;2.72;2.42;;;;;;;35.28;21.62;99521.13;5106551;28;20074;-62
2022/08/02 08:40:41;;;;;;;4.82;2.35;;;;;;;36.14;20.89;99524.13;5103572;28;20040;-60
2022/08/02 08:43:07;;;;;;;4.75;2.17;;;;;;;36.01;20.96;99508.78;5111124;28;20447;-62
2022/08/02 08:45:33;;;;;;;3.33;2.33;;;;;;;34.37;22.94;99523.88;5112466;28;20055;-62
2022/08/02 08:48:07;;;;;;;3.42;2.10;;;;;;;34.38;23.03;99525.53;5112314;28;20027;-62
2022/08/02 08:50:35;;;;;;;5.25;2.33;;;;;;;32.71;25.00;99514.75;5111574;28;20073;-63
2022/08/02 08:53:02;;;;;;;3.60;2.20;;;;;;;31.70;26.39;99515.97;5110296;28;20130;-63
2022/08/02 08:55:29;;;;;;;3.43;2.57;;;;;;;31.70;26.80;99515.16;5111030;28;20036;-63
2022/08/02 08:57:57;;;;;;;4.30;3.38;;;;;;;33.58;25.49;99506.78;5111484;28;20537;-63
2022/08/02 09:00:23;;;;;;;5.82;2.85;;;;;;;35.13;24.20;99520.53;5111525;28;20451;-62
2022/08/02 09:02:49;;;;;;;5.15;2.42;;;;;;;33.67;24.95;99475.88;5107143;28;20070;-60
2022/08/02 09:05:15;;;;;;;7.43;3.85;;;;;;;34.35;24.72;99504.34;5111448;28;20079;-63
2022/08/02 09:07:43;;;;;;;3.38;2.42;;;;;;;35.74;22.75;99504.66;5111805;28;20503;-63
2022/08/02 09:10:41;;;;;;;2.90;2.47;;;;;;;34.84;23.42;99506.53;5111644;28;20511;-63
2022/08/02 09:13:11;;;;;;;;;;;;;;;33.39;24.98;99505.72;5108957;28;20126;-62
2022/08/02 09:15:39;;;;;;;5.40;2.45;;;;;;;32.49;26.18;99499.66;5110685;28;20391;-62
2022/08/02 09:18:05;;;;;;;;;;;;;;;32.12;26.51;99508.94;5112437;28;20215;-62
2022/08/02 09:20:32;;;;;;;4.40;3.22;;;;;;;31.92;27.02;99501.50;5110258;28;19938;-62
2022/08/02 09:23:06;;;;;;;7.43;2.33;;;;;;;34.34;23.90;99497.28;5110624;28;20040;-61
2022/08/02 09:25:32;;;;;;;7.47;2.33;;;;;;;33.98;24.44;99497.69;5111746;28;20070;-63
2022/08/02 09:27:59;;;;;;;3.25;2.25;;;;;;;32.45;25.35;99491.13;5093773;28;20058;-63
2022/08/02 09:30:28;;;;;;;6.28;2.60;;;;;;;31.72;26.28;99496.97;5110359;28;20054;-62
2022/08/02 09:32:54;;;;;;;4.63;2.83;;;;;;;31.90;26.69;99495.47;5111923;28;20167;-63
2022/08/02 09:35:37;;;;;;;4.65;3.03;;;;;;;34.23;24.56;99497.09;5110892;28;20055;-62
2022/08/02 09:38:13;;;;;;;5.20;2.25;;;;;;;35.79;23.11;99485.03;5098154;28;20502;-63
2022/08/02 09:40:40;;;;;;;3.08;2.47;;;;;;;34.15;24.15;99479.22;5111710;28;20039;-64
2022/08/02 09:43:09;;;;;;;4.78;2.20;;;;;;;32.78;25.99;99488.66;5111894;28;20055;-60
2022/08/02 09:45:36;;;;;;;4.25;2.50;;;;;;;31.95;26.91;99486.81;5111291;28;20171;-62
2022/08/02 09:48:06;;;;;;;6.25;2.55;;;;;;;31.26;27.67;99440.88;5109976;28;20168;-62
2022/08/02 09:50:32;;;;;;;6.28;3.03;;;;;;;32.42;26.50;99488.00;5108460;28;20128;-61
2022/08/02 09:52:58;;;;;;;6.93;5.15;;;;;;;34.01;24.84;99491.06;5111353;28;20043;-61
2022/08/02 09:55:25;;;;;;;6.40;2.50;;;;;;;34.14;24.36;99490.22;5101602;28;20051;-61
2022/08/02 09:57:51;;;;;;;4.43;2.63;;;;;;;32.52;26.17;99483.09;5108537;28;20047;-62
2022/08/02 10:00:19;;;;;;;4.95;2.80;;;;;;;31.48;27.18;99493.59;5105211;28;20046;-61
2022/08/02 10:03:08;;;;;;;4.65;2.40;;;;;;;30.64;28.33;99487.00;5104856;28;20039;-61
2022/08/02 10:05:47;;;;;;;6.70;2.63;;;;;;;30.12;29.37;99489.72;5102013;28;20067;-62
2022/08/02 10:08:13;;;;;;;4.88;2.30;;;;;;;30.01;29.50;99482.13;5091556;28;20035;-63
2022/08/02 10:10:40;;;;;;;6.35;2.50;;;;;;;30.19;29.66;99487.16;5090869;28;20048;-62
2022/08/02 10:13:06;;;;;;;3.58;2.78;;;;;;;30.05;29.69;99440.50;5096041;28;20083;-60
2022/08/02 10:15:31;;;;;;;4.95;2.88;;;;;;;31.03;28.85;99488.56;5086606;28;20498;-62
2022/08/02 10:17:59;;;;;;;4.03;2.30;;;;;;;30.58;28.68;99482.38;5093155;28;20039;-62
2022/08/02 10:20:25;;;;;;;3.75;2.80;;;;;;;32.38;26.97;99491.09;5109858;28;20050;-63
2022/08/02 10:22:52;;;;;;;5.00;2.35;;;;;;;33.90;25.05;99489.81;5110818;28;20035;-60
2022/08/02 10:25:19;;;;;;;3.28;2.10;;;;;;;32.41;26.03;99486.34;5109457;28;20081;-62
2022/08/02 10:27:45;;;;;;;8.32;3.10;;;;;;;31.10;27.32;99484.09;5109699;28;20055;-61
2022/08/02 10:30:11;;;;;;;3.40;2.33;;;;;;;30.49;28.18;99485.34;5110373;28;20135;-60
2022/08/02 10:32:42;;;;;;;3.53;2.50;;;;;;;29.99;28.84;99473.41;5109971;28;20044;-61
2022/08/02 10:35:09;;;;;;;3.63;2.65;;;;;;;29.75;29.12;99481.66;5110478;28;20150;-60
2022/08/02 10:37:38;;;;;;;2.50;2.30;;;;;;;29.87;28.98;99474.84;5090226;28;20075;-60
2022/08/02 10:40:05;;;;;;;3.50;2.67;;;;;;;30.85;28.16;99480.03;5107096;28;20072;-60
2022/08/02 10:42:51;;;;;;;4.55;2.60;;;;;;;32.99;25.85;99475.06;5107986;28;20567;-63
2022/08/02 10:45:20;;;;;;;4.10;2.88;;;;;;;34.49;23.88;99480.03;5108716;28;20130;-60
2022/08/02 10:48:08;;;;;;;4.53;2.88;;;;;;;35.29;22.53;99471.41;5108388;28;20042;-63
2022/08/02 10:50:51;;;;;;;6.90;3.03;;;;;;;35.78;21.90;99470.69;5108535;28;20461;-61
2022/08/02 10:53:32;;;;;;;3.97;2.70;;;;;;;35.81;21.69;99454.00;5105453;28;20060;-62
2022/08/02 10:56:02;;;;;;;5.70;2.60;;;;;;;36.41;21.04;99457.00;5090327;28;20051;-61
2022/08/02 10:58:32;;;;;;;3.40;1.92;;;;;;;36.86;20.83;99473.78;5089291;28;20044;-63
2022/08/02 11:01:04;;;;;;;3.78;2.78;;;;;;;35.70;21.96;99462.03;5092153;28;20503;-62
2022/08/02 11:03:29;;;;;;;3.00;2.72;;;;;;;36.35;21.35;99457.88;5109422;28;20503;-61
2022/08/02 11:06:02;;;;;;;2.53;2.33;;;;;;;37.00;21.17;99469.88;5110415;28;20038;-61
2022/08/02 11:08:28;;;;;;;4.88;2.85;;;;;;;37.03;20.47;99441.44;5110360;28;20043;-61
2022/08/02 11:11:21;;;;;;;2.70;2.50;;;;;;;38.00;19.67;99462.75;5110001;28;20051;-62
2022/08/02 11:14:07;;;;;;;3.35;3.05;;;;;;;38.82;18.73;99463.50;5109311;28;20043;-60
2022/08/02 11:16:55;;;;;;;3.50;2.65;;;;;;;38.43;19.02;99456.09;5108861;28;20092;-59
2022/08/02 11:19:27;;;;;;;4.15;2.90;;;;;;;39.21;18.50;99455.56;5110457;28;20031;-61
2022/08/02 11:22:18;;;;;;;3.35;3.00;;;;;;;39.59;18.12;99457.63;5110477;28;20086;-59
2022/08/02 11:24:46;;;;;;;5.53;2.85;;;;;;;38.94;18.44;99461.59;5105196;28;20031;-63
2022/08/02 11:27:18;;;;;;;;;;;;;;;37.69;19.28;99461.16;5090143;28;20110;-60
2022/08/02 11:29:45;;;;;;;3.65;2.10;;;;;;;35.88;20.98;99452.06;5097062;28;19922;-60
2022/08/02 11:32:17;;;;;;;4.40;2.53;;;;;;;34.39;22.65;99454.28;5110035;28;20133;-62
2022/08/02 11:34:44;;;;;;;5.75;2.78;;;;;;;33.05;24.26;99431.16;5091218;28;20330;-60
2022/08/02 11:37:11;;;;;;;3.95;2.40;;;;;;;32.90;24.38;99443.13;5110177;28;20047;-62
2022/08/02 11:39:37;;;;;;;2.45;2.15;;;;;;;31.98;25.38;99446.91;5110053;28;20084;-62